sensor_id;sensor_type;location;lat;lon;timestamp;pressure;altitude;pressure_sealevel;temperature;humidity
71306;BME280;59097;46.858;18.632;2022-11-12T00:00:26;102068.63;;;4.63;100.00
71306;BME280;59097;46.858;18.632;2022-11-12T00:03:13;102071.28;;;4.63;100.00
71306;BME280;59097;46.858;18.632;2022-11-12T00:05:59;102061.72;;;4.62;100.00
71306;BME280;59097;46.858;18.632;2022-11-12T00:08:45;102078.09;;;4.66;100.00
71306;BME280;59097;46.858;18.632;2022-11-12T00:12:01;102070.84;;;4.69;100.00
71306;BME280;59097;46.858;18.632;2022-11-12T00:14:46;102070.50;;;4.74;100.00
71306;BME280;59097;46.858;18.632;2022-11-12T00:17:31;102060.84;;;4.74;100.00
71306;BME280;59097;46.858;18.632;2022-11-12T00:20:16;102062.62;;;4.74;100.00
71306;BME280;59097;46.858;18.632;2022-11-12T00:23:02;102064.19;;;4.76;100.00
71306;BME280;59097;46.858;18.632;2022-11-12T00:26:00;102062.47;;;4.88;100.00
71306;BME280;59097;46.858;18.632;2022-11-12T00:28:46;102062.47;;;4.88;100.00
71306;BME280;59097;46.858;18.632;2022-11-12T00:31:33;102057.16;;;4.40;100.00
71306;BME280;59097;46.858;18.632;2022-11-12T00:34:19;102056.22;;;4.41;100.00
71306;BME280;59097;46.858;18.632;2022-11-12T00:37:05;102053.56;;;4.54;100.00
71306;BME280;59097;46.858;18.632;2022-11-12T00:39:52;102053.03;;;4.13;100.00
71306;BME280;59097;46.858;18.632;2022-11-12T00:42:39;102057.78;;;4.44;100.00
71306;BME280;59097;46.858;18.632;2022-11-12T00:45:25;102054.88;;;4.36;100.00
71306;BME280;59097;46.858;18.632;2022-11-12T00:48:12;102047.28;;;4.44;100.00
71306;BME280;59097;46.858;18.632;2022-11-12T00:51:11;102048.56;;;4.38;100.00
71306;BME280;59097;46.858;18.632;2022-11-12T00:53:57;102043.47;;;4.48;100.00
71306;BME280;59097;46.858;18.632;2022-11-12T00:56:42;102040.41;;;4.54;100.00
71306;BME280;59097;46.858;18.632;2022-11-12T00:59:29;102036.72;;;4.57;100.00
71306;BME280;59097;46.858;18.632;2022-11-12T01:02:14;102034.44;;;4.52;100.00
71306;BME280;59097;46.858;18.632;2022-11-12T01:04:59;102032.53;;;4.54;100.00
71306;BME280;59097;46.858;18.632;2022-11-12T01:07:44;102036.38;;;4.61;100.00
71306;BME280;59097;46.858;18.632;2022-11-12T01:10:36;102017.81;;;5.45;100.00
71306;BME280;59097;46.858;18.632;2022-11-12T01:13:23;102017.81;;;5.45;100.00
71306;BME280;59097;46.858;18.632;2022-11-12T01:16:17;102026.09;;;4.82;100.00
71306;BME280;59097;46.858;18.632;2022-11-12T01:19:06;102031.25;;;4.83;100.00
71306;BME280;59097;46.858;18.632;2022-11-12T01:21:52;102033.50;;;4.77;100.00
71306;BME280;59097;46.858;18.632;2022-11-12T01:24:39;102018.44;;;4.79;100.00
71306;BME280;59097;46.858;18.632;2022-11-12T01:27:25;102027.44;;;4.87;100.00
71306;BME280;59097;46.858;18.632;2022-11-12T01:30:11;102023.53;;;4.93;100.00
71306;BME280;59097;46.858;18.632;2022-11-12T01:33:05;102013.53;;;4.98;100.00
71306;BME280;59097;46.858;18.632;2022-11-12T01:36:05;102003.88;;;5.09;100.00
71306;BME280;59097;46.858;18.632;2022-11-12T01:38:50;102010.25;;;5.18;100.00
71306;BME280;59097;46.858;18.632;2022-11-12T01:41:38;101998.28;;;5.25;100.00
71306;BME280;59097;46.858;18.632;2022-11-12T01:44:25;101991.03;;;5.29;100.00
71306;BME280;59097;46.858;18.632;2022-11-12T01:47:22;101983.94;;;5.29;100.00
71306;BME280;59097;46.858;18.632;2022-11-12T01:49:59;101990.63;;;5.90;100.00
71306;BME280;59097;46.858;18.632;2022-11-12T01:52:55;101990.63;;;5.90;100.00
71306;BME280;59097;46.858;18.632;2022-11-12T01:55:43;101978.31;;;5.23;100.00
71306;BME280;59097;46.858;18.632;2022-11-12T01:58:31;101978.31;;;5.23;100.00
71306;BME280;59097;46.858;18.632;2022-11-12T02:01:18;101978.56;;;5.20;100.00
71306;BME280;59097;46.858;18.632;2022-11-12T02:04:04;101976.06;;;5.18;100.00
71306;BME280;59097;46.858;18.632;2022-11-12T02:06:53;101983.81;;;5.20;100.00
71306;BME280;59097;46.858;18.632;2022-11-12T02:09:43;101979.75;;;5.16;100.00
71306;BME280;59097;46.858;18.632;2022-11-12T02:12:58;101960.59;;;5.02;100.00
71306;BME280;59097;46.858;18.632;2022-11-12T02:16:03;101968.84;;;5.09;100.00
71306;BME280;59097;46.858;18.632;2022-11-12T02:18:49;101966.09;;;5.11;100.00
71306;BME280;59097;46.858;18.632;2022-11-12T02:21:34;101967.06;;;5.09;100.00
71306;BME280;59097;46.858;18.632;2022-11-12T02:26:53;101952.06;;;5.67;100.00
71306;BME280;59097;46.858;18.632;2022-11-12T02:29:40;101952.06;;;5.67;100.00
71306;BME280;59097;46.858;18.632;2022-11-12T02:32:31;101955.78;;;4.96;100.00
71306;BME280;59097;46.858;18.632;2022-11-12T02:35:18;101953.72;;;4.89;100.00
71306;BME280;59097;46.858;18.632;2022-11-12T02:38:05;101955.84;;;4.84;100.00
71306;BME280;59097;46.858;18.632;2022-11-12T02:40:52;101953.31;;;4.71;100.00
71306;BME280;59097;46.858;18.632;2022-11-12T02:43:39;101921.78;;;4.47;100.00
71306;BME280;59097;46.858;18.632;2022-11-12T02:46:25;101954.94;;;4.61;100.00
71306;BME280;59097;46.858;18.632;2022-11-12T02:49:25;101947.28;;;4.58;100.00
71306;BME280;59097;46.858;18.632;2022-11-12T02:52:26;101939.38;;;4.47;100.00
71306;BME280;59097;46.858;18.632;2022-11-12T02:55:11;101952.72;;;4.44;100.00
71306;BME280;59097;46.858;18.632;2022-11-12T02:57:58;101957.34;;;4.40;100.00
71306;BME280;59097;46.858;18.632;2022-11-12T03:00:43;101953.72;;;4.30;100.00
71306;BME280;59097;46.858;18.632;2022-11-12T03:03:28;101950.03;;;4.33;100.00
71306;BME280;59097;46.858;18.632;2022-11-12T03:06:13;101943.59;;;4.37;100.00
71306;BME280;59097;46.858;18.632;2022-11-12T03:08:46;101938.84;;;5.12;100.00
71306;BME280;59097;46.858;18.632;2022-11-12T03:11:33;101938.84;;;5.12;100.00
71306;BME280;59097;46.858;18.632;2022-11-12T03:14:19;101932.16;;;4.38;100.00
71306;BME280;59097;46.858;18.632;2022-11-12T03:17:05;101951.03;;;4.43;100.00
71306;BME280;59097;46.858;18.632;2022-11-12T03:19:51;101944.34;;;4.39;100.00
71306;BME280;59097;46.858;18.632;2022-11-12T03:22:38;101939.09;;;4.39;100.00
71306;BME280;59097;46.858;18.632;2022-11-12T03:25:26;101933.22;;;4.35;100.00
71306;BME280;59097;46.858;18.632;2022-11-12T03:28:14;101936.06;;;4.32;100.00
71306;BME280;59097;46.858;18.632;2022-11-12T03:31:15;101935.63;;;4.38;100.00
71306;BME280;59097;46.858;18.632;2022-11-12T03:34:15;101934.56;;;4.41;100.00
71306;BME280;59097;46.858;18.632;2022-11-12T03:37:00;101944.88;;;4.55;100.00
71306;BME280;59097;46.858;18.632;2022-11-12T03:39:46;101939.78;;;4.65;100.00
71306;BME280;59097;46.858;18.632;2022-11-12T03:42:31;101940.66;;;4.76;100.00
71306;BME280;59097;46.858;18.632;2022-11-12T03:45:18;101937.25;;;4.87;100.00
71306;BME280;59097;46.858;18.632;2022-11-12T03:48:03;101925.31;;;4.94;100.00
71306;BME280;59097;46.858;18.632;2022-11-12T03:50:36;101938.87;;;5.78;100.00
71306;BME280;59097;46.858;18.632;2022-11-12T03:53:23;101938.87;;;5.78;100.00
71306;BME280;59097;46.858;18.632;2022-11-12T03:56:09;101937.44;;;5.19;100.00
71306;BME280;59097;46.858;18.632;2022-11-12T03:58:55;101936.25;;;5.23;100.00
71306;BME280;59097;46.858;18.632;2022-11-12T04:01:42;101932.66;;;5.24;100.00
71306;BME280;59097;46.858;18.632;2022-11-12T04:04:28;101928.47;;;5.21;100.00
71306;BME280;59097;46.858;18.632;2022-11-12T04:07:35;101928.69;;;5.29;100.00
71306;BME280;59097;46.858;18.632;2022-11-12T04:11:09;101933.34;;;5.15;100.00
71306;BME280;59097;46.858;18.632;2022-11-12T04:13:58;101933.88;;;4.85;100.00
71306;BME280;59097;46.858;18.632;2022-11-12T04:16:44;101947.09;;;5.07;100.00
71306;BME280;59097;46.858;18.632;2022-11-12T04:19:47;101915.37;;;4.86;100.00
71306;BME280;59097;46.858;18.632;2022-11-12T04:22:38;101939.59;;;5.25;100.00
71306;BME280;59097;46.858;18.632;2022-11-12T04:25:25;101944.63;;;5.28;100.00
71306;BME280;59097;46.858;18.632;2022-11-12T04:28:29;101934.81;;;5.30;100.00
71306;BME280;59097;46.858;18.632;2022-11-12T04:31:16;101932.31;;;5.28;100.00
71306;BME280;59097;46.858;18.632;2022-11-12T04:34:02;101928.59;;;5.31;100.00
71306;BME280;59097;46.858;18.632;2022-11-12T04:37:26;101906.59;;;5.21;100.00
71306;BME280;59097;46.858;18.632;2022-11-12T04:40:42;101930.84;;;5.24;100.00
71306;BME280;59097;46.858;18.632;2022-11-12T04:43:46;101923.81;;;5.25;100.00
71306;BME280;59097;46.858;18.632;2022-11-12T04:46:50;101929.31;;;5.33;100.00
71306;BME280;59097;46.858;18.632;2022-11-12T04:49:35;101925.25;;;5.40;100.00
71306;BME280;59097;46.858;18.632;2022-11-12T04:52:20;101917.00;;;5.44;100.00
71306;BME280;59097;46.858;18.632;2022-11-12T04:55:05;101918.78;;;5.33;100.00
71306;BME280;59097;46.858;18.632;2022-11-12T04:57:38;101885.78;;;5.95;100.00
71306;BME280;59097;46.858;18.632;2022-11-12T05:00:24;101885.78;;;5.95;100.00
71306;BME280;59097;46.858;18.632;2022-11-12T05:03:11;101899.41;;;5.45;100.00
71306;BME280;59097;46.858;18.632;2022-11-12T05:06:04;101927.06;;;5.61;100.00
71306;BME280;59097;46.858;18.632;2022-11-12T05:09:14;101931.03;;;5.67;100.00
71306;BME280;59097;46.858;18.632;2022-11-12T05:12:01;101919.03;;;5.52;100.00
71306;BME280;59097;46.858;18.632;2022-11-12T05:14:47;101929.81;;;5.38;100.00
71306;BME280;59097;46.858;18.632;2022-11-12T05:17:47;101939.59;;;5.47;100.00
71306;BME280;59097;46.858;18.632;2022-11-12T05:20:52;101935.19;;;5.58;100.00
71306;BME280;59097;46.858;18.632;2022-11-12T05:23:37;101955.22;;;5.15;100.00
71306;BME280;59097;46.858;18.632;2022-11-12T05:26:22;101941.66;;;4.86;100.00
71306;BME280;59097;46.858;18.632;2022-11-12T05:29:07;101950.78;;;5.04;100.00
71306;BME280;59097;46.858;18.632;2022-11-12T05:31:52;101953.69;;;5.13;100.00
71306;BME280;59097;46.858;18.632;2022-11-12T05:34:37;101954.34;;;4.92;100.00
71306;BME280;59097;46.858;18.632;2022-11-12T05:37:12;101961.12;;;5.52;100.00
71306;BME280;59097;46.858;18.632;2022-11-12T05:39:59;101961.12;;;5.52;100.00
71306;BME280;59097;46.858;18.632;2022-11-12T05:42:46;101965.00;;;5.02;100.00
71306;BME280;59097;46.858;18.632;2022-11-12T05:45:32;101959.28;;;5.08;100.00
71306;BME280;59097;46.858;18.632;2022-11-12T05:48:19;101956.66;;;5.08;100.00
71306;BME280;59097;46.858;18.632;2022-11-12T05:51:09;101961.78;;;5.09;100.00
71306;BME280;59097;46.858;18.632;2022-11-12T05:53:59;101968.87;;;5.20;100.00
71306;BME280;59097;46.858;18.632;2022-11-12T05:56:46;101970.78;;;5.29;100.00
71306;BME280;59097;46.858;18.632;2022-11-12T05:59:32;101963.88;;;5.39;100.00
71306;BME280;59097;46.858;18.632;2022-11-12T06:02:17;101967.81;;;5.45;100.00
71306;BME280;59097;46.858;18.632;2022-11-12T06:05:02;101960.38;;;5.05;100.00
71306;BME280;59097;46.858;18.632;2022-11-12T06:07:47;101962.81;;;5.31;100.00
71306;BME280;59097;46.858;18.632;2022-11-12T06:10:32;101966.69;;;5.14;100.00
71306;BME280;59097;46.858;18.632;2022-11-12T06:13:18;101966.00;;;5.34;100.00
71306;BME280;59097;46.858;18.632;2022-11-12T06:15:52;101967.38;;;5.51;100.00
71306;BME280;59097;46.858;18.632;2022-11-12T06:18:39;101972.72;;;5.49;100.00
71306;BME280;59097;46.858;18.632;2022-11-12T06:21:25;101964.34;;;5.44;100.00
71306;BME280;59097;46.858;18.632;2022-11-12T06:24:14;101976.34;;;5.59;100.00
71306;BME280;59097;46.858;18.632;2022-11-12T06:27:00;101983.03;;;5.63;100.00
71306;BME280;59097;46.858;18.632;2022-11-12T06:29:46;101975.38;;;5.38;100.00
71306;BME280;59097;46.858;18.632;2022-11-12T06:32:33;101989.37;;;5.61;100.00
71306;BME280;59097;46.858;18.632;2022-11-12T06:35:19;101992.25;;;5.58;100.00
71306;BME280;59097;46.858;18.632;2022-11-12T06:38:05;101992.75;;;5.74;100.00
71306;BME280;59097;46.858;18.632;2022-11-12T06:40:50;101985.75;;;5.40;100.00
71306;BME280;59097;46.858;18.632;2022-11-12T06:43:36;101987.94;;;5.68;100.00
71306;BME280;59097;46.858;18.632;2022-11-12T06:46:21;101988.81;;;5.80;100.00
71306;BME280;59097;46.858;18.632;2022-11-12T06:49:06;101990.72;;;5.89;100.00
71306;BME280;59097;46.858;18.632;2022-11-12T06:51:51;102003.28;;;5.96;100.00
71306;BME280;59097;46.858;18.632;2022-11-12T06:54:36;102012.66;;;6.00;100.00
71306;BME280;59097;46.858;18.632;2022-11-12T06:57:21;101998.12;;;6.06;100.00
71306;BME280;59097;46.858;18.632;2022-11-12T06:59:53;101993.97;;;6.89;100.00
71306;BME280;59097;46.858;18.632;2022-11-12T07:02:40;101993.97;;;6.89;100.00
71306;BME280;59097;46.858;18.632;2022-11-12T07:05:26;101997.06;;;6.19;100.00
71306;BME280;59097;46.858;18.632;2022-11-12T07:08:13;101982.69;;;6.12;100.00
71306;BME280;59097;46.858;18.632;2022-11-12T07:10:59;102001.59;;;6.28;100.00
71306;BME280;59097;46.858;18.632;2022-11-12T07:13:46;102008.75;;;6.38;100.00
71306;BME280;59097;46.858;18.632;2022-11-12T07:16:32;101999.84;;;6.50;100.00
71306;BME280;59097;46.858;18.632;2022-11-12T07:19:19;101997.00;;;6.42;100.00
71306;BME280;59097;46.858;18.632;2022-11-12T07:22:20;101999.84;;;6.61;100.00
71306;BME280;59097;46.858;18.632;2022-11-12T07:25:32;102006.50;;;6.65;100.00
71306;BME280;59097;46.858;18.632;2022-11-12T07:28:17;102007.13;;;6.57;100.00
71306;BME280;59097;46.858;18.632;2022-11-12T07:31:04;102000.53;;;6.63;100.00
71306;BME280;59097;46.858;18.632;2022-11-12T07:33:50;102003.19;;;6.63;100.00
71306;BME280;59097;46.858;18.632;2022-11-12T07:36:35;102002.16;;;6.75;100.00
71306;BME280;59097;46.858;18.632;2022-11-12T07:39:27;101996.50;;;7.52;100.00
71306;BME280;59097;46.858;18.632;2022-11-12T07:42:13;101996.50;;;7.52;100.00
71306;BME280;59097;46.858;18.632;2022-11-12T07:45:00;102004.97;;;6.94;100.00
71306;BME280;59097;46.858;18.632;2022-11-12T07:47:46;102003.41;;;6.71;100.00
71306;BME280;59097;46.858;18.632;2022-11-12T07:50:33;102000.03;;;7.01;100.00
71306;BME280;59097;46.858;18.632;2022-11-12T07:53:19;102013.31;;;7.10;100.00
71306;BME280;59097;46.858;18.632;2022-11-12T07:56:06;102008.75;;;7.12;100.00
71306;BME280;59097;46.858;18.632;2022-11-12T07:58:52;102012.97;;;7.24;100.00
71306;BME280;59097;46.858;18.632;2022-11-12T08:01:53;102015.81;;;7.32;100.00
71306;BME280;59097;46.858;18.632;2022-11-12T08:04:38;102019.16;;;7.34;100.00
71306;BME280;59097;46.858;18.632;2022-11-12T08:07:24;102012.03;;;7.46;100.00
71306;BME280;59097;46.858;18.632;2022-11-12T08:10:09;102013.16;;;7.53;100.00
71306;BME280;59097;46.858;18.632;2022-11-12T08:12:57;102017.22;;;7.57;100.00
71306;BME280;59097;46.858;18.632;2022-11-12T08:15:42;102014.66;;;7.25;100.00
71306;BME280;59097;46.858;18.632;2022-11-12T08:18:14;102013.91;;;8.25;100.00
71306;BME280;59097;46.858;18.632;2022-11-12T08:21:04;102013.91;;;8.25;100.00
71306;BME280;59097;46.858;18.632;2022-11-12T08:23:50;102024.16;;;7.79;100.00
71306;BME280;59097;46.858;18.632;2022-11-12T08:26:36;102020.25;;;7.83;100.00
71306;BME280;59097;46.858;18.632;2022-11-12T08:29:23;102030.94;;;8.02;100.00
71306;BME280;59097;46.858;18.632;2022-11-12T08:32:09;102032.31;;;8.06;100.00
71306;BME280;59097;46.858;18.632;2022-11-12T08:34:56;102029.53;;;7.77;100.00
71306;BME280;59097;46.858;18.632;2022-11-12T08:37:43;102036.56;;;7.88;100.00
71306;BME280;59097;46.858;18.632;2022-11-12T08:40:43;102024.09;;;7.99;100.00
71306;BME280;59097;46.858;18.632;2022-11-12T08:43:29;102033.03;;;8.08;100.00
71306;BME280;59097;46.858;18.632;2022-11-12T08:46:13;102041.72;;;8.19;100.00
71306;BME280;59097;46.858;18.632;2022-11-12T08:48:59;102036.00;;;8.24;100.00
71306;BME280;59097;46.858;18.632;2022-11-12T08:51:44;102046.78;;;8.32;100.00
71306;BME280;59097;46.858;18.632;2022-11-12T08:54:35;102048.78;;;8.59;100.00
71306;BME280;59097;46.858;18.632;2022-11-12T08:57:22;102048.78;;;8.59;100.00
71306;BME280;59097;46.858;18.632;2022-11-12T09:00:12;102049.06;;;8.16;100.00
71306;BME280;59097;46.858;18.632;2022-11-12T09:02:59;102068.41;;;8.26;100.00
71306;BME280;59097;46.858;18.632;2022-11-12T09:05:46;102075.59;;;8.35;100.00
71306;BME280;59097;46.858;18.632;2022-11-12T09:08:34;102073.97;;;8.23;100.00
71306;BME280;59097;46.858;18.632;2022-11-12T09:11:21;102071.41;;;8.33;100.00
71306;BME280;59097;46.858;18.632;2022-11-12T09:14:07;102049.50;;;8.21;100.00
71306;BME280;59097;46.858;18.632;2022-11-12T09:17:08;102072.47;;;8.60;100.00
71306;BME280;59097;46.858;18.632;2022-11-12T09:19:53;102078.69;;;8.50;100.00
71306;BME280;59097;46.858;18.632;2022-11-12T09:22:38;102081.53;;;8.67;100.00
71306;BME280;59097;46.858;18.632;2022-11-12T09:25:23;102086.28;;;8.73;100.00
71306;BME280;59097;46.858;18.632;2022-11-12T09:28:13;102095.34;;;9.00;100.00
71306;BME280;59097;46.858;18.632;2022-11-12T09:30:59;102093.44;;;9.11;100.00
71306;BME280;59097;46.858;18.632;2022-11-12T09:33:32;102086.56;;;9.57;100.00
71306;BME280;59097;46.858;18.632;2022-11-12T09:36:19;102086.56;;;9.57;100.00
71306;BME280;59097;46.858;18.632;2022-11-12T09:39:05;102095.50;;;8.89;100.00
71306;BME280;59097;46.858;18.632;2022-11-12T09:41:52;102096.47;;;8.88;100.00
71306;BME280;59097;46.858;18.632;2022-11-12T09:45:02;102090.22;;;9.17;100.00
71306;BME280;59097;46.858;18.632;2022-11-12T09:48:08;102101.37;;;9.11;100.00
71306;BME280;59097;46.858;18.632;2022-11-12T09:50:59;102097.84;;;9.59;100.00
71306;BME280;59097;46.858;18.632;2022-11-12T09:57:11;102090.13;;;9.84;100.00
71306;BME280;59097;46.858;18.632;2022-11-12T09:59:57;102089.06;;;9.77;100.00
71306;BME280;59097;46.858;18.632;2022-11-12T10:02:51;102087.66;;;9.83;100.00
71306;BME280;59097;46.858;18.632;2022-11-12T10:05:48;102098.78;;;9.86;100.00
71306;BME280;59097;46.858;18.632;2022-11-12T10:08:51;102093.72;;;10.02;100.00
71306;BME280;59097;46.858;18.632;2022-11-12T10:18:24;102079.28;;;10.79;100.00
71306;BME280;59097;46.858;18.632;2022-11-12T10:23:54;102067.56;;;10.54;100.00
71306;BME280;59097;46.858;18.632;2022-11-12T10:26:41;102068.59;;;10.16;100.00
71306;BME280;59097;46.858;18.632;2022-11-12T10:29:51;102071.44;;;10.59;100.00
71306;BME280;59097;46.858;18.632;2022-11-12T10:32:42;102067.37;;;10.65;99.33
71306;BME280;59097;46.858;18.632;2022-11-12T10:35:43;102065.88;;;10.80;99.57
71306;BME280;59097;46.858;18.632;2022-11-12T10:38:31;102061.16;;;11.09;98.76
71306;BME280;59097;46.858;18.632;2022-11-12T10:44:05;102074.41;;;10.56;100.00
71306;BME280;59097;46.858;18.632;2022-11-12T10:46:50;102069.50;;;10.34;100.00
71306;BME280;59097;46.858;18.632;2022-11-12T10:49:35;102068.88;;;10.50;100.00
71306;BME280;59097;46.858;18.632;2022-11-12T10:52:27;102057.22;;;11.31;100.00
71306;BME280;59097;46.858;18.632;2022-11-12T10:55:16;102057.22;;;11.31;100.00
71306;BME280;59097;46.858;18.632;2022-11-12T11:01:02;102071.09;;;10.72;99.49
71306;BME280;59097;46.858;18.632;2022-11-12T11:03:56;102067.41;;;10.83;99.37
71306;BME280;59097;46.858;18.632;2022-11-12T11:06:43;102065.97;;;10.88;99.18
71306;BME280;59097;46.858;18.632;2022-11-12T11:09:30;102065.97;;;10.88;98.26
71306;BME280;59097;46.858;18.632;2022-11-12T11:12:29;102057.47;;;11.02;98.24
71306;BME280;59097;46.858;18.632;2022-11-12T11:16:05;102046.81;;;10.67;100.00
71306;BME280;59097;46.858;18.632;2022-11-12T11:19:08;102047.59;;;11.12;100.00
71306;BME280;59097;46.858;18.632;2022-11-12T11:22:01;102043.87;;;11.23;98.33
71306;BME280;59097;46.858;18.632;2022-11-12T11:27:54;102057.69;;;11.26;97.30
71306;BME280;59097;46.858;18.632;2022-11-12T11:33:43;102057.25;;;11.57;95.48
71306;BME280;59097;46.858;18.632;2022-11-12T11:36:51;102057.25;;;11.57;95.48
71306;BME280;59097;46.858;18.632;2022-11-12T11:39:43;102066.09;;;10.69;100.00
71306;BME280;59097;46.858;18.632;2022-11-12T11:52:11;102041.31;;;11.13;99.73
71306;BME280;59097;46.858;18.632;2022-11-12T11:55:27;102042.94;;;11.32;97.81
71306;BME280;59097;46.858;18.632;2022-11-12T12:04:46;102025.16;;;10.89;100.00
71306;BME280;59097;46.858;18.632;2022-11-12T12:07:50;102025.19;;;11.32;98.66
71306;BME280;59097;46.858;18.632;2022-11-12T12:13:43;102017.88;;;11.52;96.11
71306;BME280;59097;46.858;18.632;2022-11-12T12:16:47;102029.53;;;12.11;93.17
71306;BME280;59097;46.858;18.632;2022-11-12T12:22:49;102034.22;;;11.22;97.14
71306;BME280;59097;46.858;18.632;2022-11-12T12:25:40;102023.53;;;11.31;96.23
71306;BME280;59097;46.858;18.632;2022-11-12T12:28:38;102036.13;;;11.55;94.99
71306;BME280;59097;46.858;18.632;2022-11-12T12:31:30;102031.00;;;11.10;97.67
71306;BME280;59097;46.858;18.632;2022-11-12T12:34:23;102036.22;;;11.02;98.34
71306;BME280;59097;46.858;18.632;2022-11-12T12:37:56;102031.34;;;11.33;97.16
71306;BME280;59097;46.858;18.632;2022-11-12T12:40:50;102004.19;;;11.04;98.02
71306;BME280;59097;46.858;18.632;2022-11-12T12:43:42;102029.56;;;10.98;98.40
71306;BME280;59097;46.858;18.632;2022-11-12T12:46:33;102032.25;;;11.42;96.80
71306;BME280;59097;46.858;18.632;2022-11-12T12:49:28;102025.00;;;11.52;94.72
71306;BME280;59097;46.858;18.632;2022-11-12T12:52:02;102026.56;;;12.22;92.98
71306;BME280;59097;46.858;18.632;2022-11-12T12:57:38;102029.31;;;11.53;93.36
71306;BME280;59097;46.858;18.632;2022-11-12T13:00:30;102022.06;;;11.55;94.63
71306;BME280;59097;46.858;18.632;2022-11-12T13:06:37;102014.31;;;11.44;95.78
71306;BME280;59097;46.858;18.632;2022-11-12T13:09:25;102026.78;;;11.25;96.12
71306;BME280;59097;46.858;18.632;2022-11-12T13:12:16;102018.94;;;11.16;97.49
71306;BME280;59097;46.858;18.632;2022-11-12T13:15:13;102021.97;;;11.21;96.35
71306;BME280;59097;46.858;18.632;2022-11-12T13:21:21;102011.12;;;11.40;94.61
71306;BME280;59097;46.858;18.632;2022-11-12T13:24:08;102011.66;;;11.44;94.50
71306;BME280;59097;46.858;18.632;2022-11-12T13:26:58;102011.97;;;11.41;95.26
71306;BME280;59097;46.858;18.632;2022-11-12T13:29:45;102006.66;;;11.41;94.85
71306;BME280;59097;46.858;18.632;2022-11-12T13:41:21;102017.38;;;11.31;95.71
71306;BME280;59097;46.858;18.632;2022-11-12T13:44:30;102020.66;;;11.25;96.59
71306;BME280;59097;46.858;18.632;2022-11-12T13:47:20;102017.13;;;11.16;97.05
71306;BME280;59097;46.858;18.632;2022-11-12T13:50:15;102013.53;;;11.08;97.72
71306;BME280;59097;46.858;18.632;2022-11-12T13:53:07;102014.69;;;11.05;98.15
71306;BME280;59097;46.858;18.632;2022-11-12T13:56:10;102014.78;;;10.96;98.67
71306;BME280;59097;46.858;18.632;2022-11-12T13:59:28;101998.31;;;10.92;98.55
71306;BME280;59097;46.858;18.632;2022-11-12T14:02:22;102019.06;;;11.14;98.67
71306;BME280;59097;46.858;18.632;2022-11-12T14:05:16;102019.44;;;11.19;97.88
71306;BME280;59097;46.858;18.632;2022-11-12T14:08:08;102019.44;;;11.19;98.21
71306;BME280;59097;46.858;18.632;2022-11-12T14:11:20;102022.09;;;11.02;98.16
71306;BME280;59097;46.858;18.632;2022-11-12T14:17:21;102011.28;;;11.82;95.35
71306;BME280;59097;46.858;18.632;2022-11-12T14:20:27;102022.44;;;11.16;98.16
71306;BME280;59097;46.858;18.632;2022-11-12T14:23:20;102014.91;;;11.12;98.57
71306;BME280;59097;46.858;18.632;2022-11-12T14:26:11;102010.81;;;11.00;99.66
71306;BME280;59097;46.858;18.632;2022-11-12T14:28:58;102010.66;;;11.01;98.49
71306;BME280;59097;46.858;18.632;2022-11-12T14:31:45;102014.53;;;11.07;98.34
71306;BME280;59097;46.858;18.632;2022-11-12T14:34:33;102018.31;;;11.04;98.73
71306;BME280;59097;46.858;18.632;2022-11-12T14:40:32;102025.53;;;10.94;99.25
71306;BME280;59097;46.858;18.632;2022-11-12T14:43:50;102016.81;;;10.84;99.79
71306;BME280;59097;46.858;18.632;2022-11-12T14:46:43;102017.44;;;10.78;100.00
71306;BME280;59097;46.858;18.632;2022-11-12T14:49:40;102024.69;;;10.76;100.00
71306;BME280;59097;46.858;18.632;2022-11-12T14:52:29;102028.19;;;10.77;100.00
71306;BME280;59097;46.858;18.632;2022-11-12T14:55:19;102016.22;;;10.72;100.00
71306;BME280;59097;46.858;18.632;2022-11-12T14:58:04;102025.97;;;10.72;100.00
71306;BME280;59097;46.858;18.632;2022-11-12T15:00:51;102025.59;;;10.67;100.00
71306;BME280;59097;46.858;18.632;2022-11-12T15:03:30;102026.78;;;11.25;100.00
71306;BME280;59097;46.858;18.632;2022-11-12T15:06:38;102026.78;;;11.25;100.00
71306;BME280;59097;46.858;18.632;2022-11-12T15:09:34;102023.44;;;10.53;100.00
71306;BME280;59097;46.858;18.632;2022-11-12T15:12:29;102019.13;;;10.52;100.00
71306;BME280;59097;46.858;18.632;2022-11-12T15:15:19;102024.91;;;10.47;100.00
71306;BME280;59097;46.858;18.632;2022-11-12T15:18:20;102019.59;;;10.47;100.00
71306;BME280;59097;46.858;18.632;2022-11-12T15:21:17;102023.66;;;10.42;100.00
71306;BME280;59097;46.858;18.632;2022-11-12T15:24:16;102025.47;;;10.41;100.00
71306;BME280;59097;46.858;18.632;2022-11-12T15:27:40;102022.84;;;10.41;100.00
71306;BME280;59097;46.858;18.632;2022-11-12T15:31:19;102021.16;;;10.40;100.00
71306;BME280;59097;46.858;18.632;2022-11-12T15:40:10;102024.13;;;10.37;100.00
71306;BME280;59097;46.858;18.632;2022-11-12T15:42:43;102019.91;;;10.97;100.00
71306;BME280;59097;46.858;18.632;2022-11-12T15:45:31;102019.91;;;10.97;100.00
71306;BME280;59097;46.858;18.632;2022-11-12T15:48:17;102010.94;;;10.18;100.00
71306;BME280;59097;46.858;18.632;2022-11-12T15:51:10;102008.63;;;10.05;100.00
71306;BME280;59097;46.858;18.632;2022-11-12T15:53:57;102008.66;;;9.96;100.00
71306;BME280;59097;46.858;18.632;2022-11-12T15:56:43;102012.91;;;9.79;100.00